sensor_id;sensor_type;location;lat;lon;timestamp;temperature;humidity
58519;DHT22;44310;48.106;12.008;2022-08-25T00:01:59;21.70;85.00
58519;DHT22;44310;48.106;12.008;2022-08-25T00:04:29;21.70;85.00
58519;DHT22;44310;48.106;12.008;2022-08-25T00:06:56;21.70;84.90
58519;DHT22;44310;48.106;12.008;2022-08-25T00:09:31;21.70;85.00
58519;DHT22;44310;48.106;12.008;2022-08-25T00:11:59;21.70;84.90
58519;DHT22;44310;48.106;12.008;2022-08-25T00:14:33;21.70;84.80
58519;DHT22;44310;48.106;12.008;2022-08-25T00:17:01;21.70;84.70
58519;DHT22;44310;48.106;12.008;2022-08-25T00:19:32;21.70;84.90
58519;DHT22;44310;48.106;12.008;2022-08-25T00:22:00;21.70;84.90
58519;DHT22;44310;48.106;12.008;2022-08-25T00:24:29;21.70;84.90
58519;DHT22;44310;48.106;12.008;2022-08-25T00:26:58;21.70;84.90
58519;DHT22;44310;48.106;12.008;2022-08-25T00:29:27;21.70;84.90
58519;DHT22;44310;48.106;12.008;2022-08-25T00:31:55;21.70;84.80
58519;DHT22;44310;48.106;12.008;2022-08-25T00:34:33;21.70;84.80
58519;DHT22;44310;48.106;12.008;2022-08-25T00:37:02;21.70;85.00
58519;DHT22;44310;48.106;12.008;2022-08-25T00:39:29;21.70;84.90
58519;DHT22;44310;48.106;12.008;2022-08-25T00:41:58;21.70;85.10
58519;DHT22;44310;48.106;12.008;2022-08-25T00:44:28;21.80;85.50
58519;DHT22;44310;48.106;12.008;2022-08-25T00:46:57;21.80;85.50
58519;DHT22;44310;48.106;12.008;2022-08-25T00:49:31;21.70;85.30
58519;DHT22;44310;48.106;12.008;2022-08-25T00:52:06;21.80;85.20
58519;DHT22;44310;48.106;12.008;2022-08-25T00:54:41;21.70;85.10
58519;DHT22;44310;48.106;12.008;2022-08-25T00:57:13;21.70;85.10
58519;DHT22;44310;48.106;12.008;2022-08-25T01:00:08;21.80;85.40
58519;DHT22;44310;48.106;12.008;2022-08-25T01:02:37;21.80;85.30
58519;DHT22;44310;48.106;12.008;2022-08-25T01:05:05;21.70;85.20
58519;DHT22;44310;48.106;12.008;2022-08-25T01:07:33;21.70;85.10
58519;DHT22;44310;48.106;12.008;2022-08-25T01:10:01;21.70;85.20
58519;DHT22;44310;48.106;12.008;2022-08-25T01:12:28;21.70;85.00
58519;DHT22;44310;48.106;12.008;2022-08-25T01:14:56;21.80;84.90
58519;DHT22;44310;48.106;12.008;2022-08-25T01:17:24;21.70;84.60
58519;DHT22;44310;48.106;12.008;2022-08-25T01:19:54;21.70;84.60
58519;DHT22;44310;48.106;12.008;2022-08-25T01:22:21;21.70;84.90
58519;DHT22;44310;48.106;12.008;2022-08-25T01:25:00;21.70;85.00
58519;DHT22;44310;48.106;12.008;2022-08-25T01:27:30;21.70;85.00
58519;DHT22;44310;48.106;12.008;2022-08-25T01:29:59;21.70;84.90
58519;DHT22;44310;48.106;12.008;2022-08-25T01:32:33;21.70;84.80
58519;DHT22;44310;48.106;12.008;2022-08-25T01:35:01;21.70;84.60
58519;DHT22;44310;48.106;12.008;2022-08-25T01:37:28;21.70;84.50
58519;DHT22;44310;48.106;12.008;2022-08-25T01:39:55;21.70;84.30
58519;DHT22;44310;48.106;12.008;2022-08-25T01:42:42;21.70;84.30
58519;DHT22;44310;48.106;12.008;2022-08-25T01:45:13;21.70;84.20
58519;DHT22;44310;48.106;12.008;2022-08-25T01:47:40;21.70;84.00
58519;DHT22;44310;48.106;12.008;2022-08-25T01:50:08;21.70;83.80
58519;DHT22;44310;48.106;12.008;2022-08-25T01:52:54;21.70;83.80
58519;DHT22;44310;48.106;12.008;2022-08-25T01:55:22;21.70;83.80
58519;DHT22;44310;48.106;12.008;2022-08-25T01:57:50;21.70;83.60
58519;DHT22;44310;48.106;12.008;2022-08-25T02:00:18;21.70;83.70
58519;DHT22;44310;48.106;12.008;2022-08-25T02:02:46;21.70;84.20
58519;DHT22;44310;48.106;12.008;2022-08-25T02:05:20;21.70;84.50
58519;DHT22;44310;48.106;12.008;2022-08-25T02:07:49;21.70;84.50
58519;DHT22;44310;48.106;12.008;2022-08-25T02:10:17;21.70;84.40
58519;DHT22;44310;48.106;12.008;2022-08-25T02:12:44;21.70;84.20
58519;DHT22;44310;48.106;12.008;2022-08-25T02:15:12;21.70;84.20
58519;DHT22;44310;48.106;12.008;2022-08-25T02:17:40;21.70;84.10
58519;DHT22;44310;48.106;12.008;2022-08-25T02:20:08;21.70;84.00
58519;DHT22;44310;48.106;12.008;2022-08-25T02:22:35;21.70;84.50
58519;DHT22;44310;48.106;12.008;2022-08-25T02:25:04;21.70;83.80
58519;DHT22;44310;48.106;12.008;2022-08-25T02:27:32;21.70;83.80
58519;DHT22;44310;48.106;12.008;2022-08-25T02:30:00;21.70;84.00
58519;DHT22;44310;48.106;12.008;2022-08-25T02:32:27;21.70;83.90
58519;DHT22;44310;48.106;12.008;2022-08-25T02:34:54;21.70;84.00
58519;DHT22;44310;48.106;12.008;2022-08-25T02:37:22;21.70;84.00
58519;DHT22;44310;48.106;12.008;2022-08-25T02:39:49;21.70;84.00
58519;DHT22;44310;48.106;12.008;2022-08-25T02:42:16;21.70;84.50
58519;DHT22;44310;48.106;12.008;2022-08-25T02:44:44;21.70;83.80
58519;DHT22;44310;48.106;12.008;2022-08-25T02:47:11;21.70;83.80
58519;DHT22;44310;48.106;12.008;2022-08-25T02:49:38;21.70;83.90
58519;DHT22;44310;48.106;12.008;2022-08-25T02:52:08;21.70;84.00
58519;DHT22;44310;48.106;12.008;2022-08-25T02:54:35;21.70;84.00
58519;DHT22;44310;48.106;12.008;2022-08-25T02:57:03;21.70;83.90
58519;DHT22;44310;48.106;12.008;2022-08-25T02:59:30;21.70;83.90
58519;DHT22;44310;48.106;12.008;2022-08-25T03:01:58;21.70;84.00
58519;DHT22;44310;48.106;12.008;2022-08-25T03:04:25;21.70;83.90
58519;DHT22;44310;48.106;12.008;2022-08-25T03:06:53;21.70;84.00
58519;DHT22;44310;48.106;12.008;2022-08-25T03:09:21;21.70;83.90
58519;DHT22;44310;48.106;12.008;2022-08-25T03:11:49;21.70;84.00
58519;DHT22;44310;48.106;12.008;2022-08-25T03:14:16;21.70;83.90
58519;DHT22;44310;48.106;12.008;2022-08-25T03:16:44;21.70;83.90
58519;DHT22;44310;48.106;12.008;2022-08-25T03:19:12;21.70;83.90
58519;DHT22;44310;48.106;12.008;2022-08-25T03:21:39;21.70;83.80
58519;DHT22;44310;48.106;12.008;2022-08-25T03:24:07;21.70;83.80
58519;DHT22;44310;48.106;12.008;2022-08-25T03:26:34;21.70;84.10
58519;DHT22;44310;48.106;12.008;2022-08-25T03:29:25;21.70;84.30
58519;DHT22;44310;48.106;12.008;2022-08-25T03:31:54;21.70;84.30
58519;DHT22;44310;48.106;12.008;2022-08-25T03:34:22;21.70;84.30
58519;DHT22;44310;48.106;12.008;2022-08-25T03:36:51;21.70;84.60
58519;DHT22;44310;48.106;12.008;2022-08-25T03:39:21;21.70;84.80
58519;DHT22;44310;48.106;12.008;2022-08-25T03:41:50;21.70;85.20
58519;DHT22;44310;48.106;12.008;2022-08-25T03:44:18;21.70;85.10
58519;DHT22;44310;48.106;12.008;2022-08-25T03:46:49;21.70;85.20
58519;DHT22;44310;48.106;12.008;2022-08-25T03:49:22;21.70;85.20
58519;DHT22;44310;48.106;12.008;2022-08-25T03:51:51;21.70;85.20
58519;DHT22;44310;48.106;12.008;2022-08-25T03:54:22;21.70;85.30
58519;DHT22;44310;48.106;12.008;2022-08-25T03:56:50;21.70;85.40
58519;DHT22;44310;48.106;12.008;2022-08-25T03:59:17;21.70;85.30
58519;DHT22;44310;48.106;12.008;2022-08-25T04:01:46;21.70;85.20
58519;DHT22;44310;48.106;12.008;2022-08-25T04:04:20;21.70;85.20
58519;DHT22;44310;48.106;12.008;2022-08-25T04:06:47;21.70;85.00
58519;DHT22;44310;48.106;12.008;2022-08-25T04:09:14;21.70;85.10
58519;DHT22;44310;48.106;12.008;2022-08-25T04:11:42;21.70;84.90
58519;DHT22;44310;48.106;12.008;2022-08-25T04:14:10;21.70;84.80
58519;DHT22;44310;48.106;12.008;2022-08-25T04:16:43;21.60;84.60
58519;DHT22;44310;48.106;12.008;2022-08-25T04:19:10;21.60;84.80
58519;DHT22;44310;48.106;12.008;2022-08-25T04:21:39;21.60;84.70
58519;DHT22;44310;48.106;12.008;2022-08-25T04:24:08;21.70;84.70
58519;DHT22;44310;48.106;12.008;2022-08-25T04:26:40;21.70;84.40
58519;DHT22;44310;48.106;12.008;2022-08-25T04:29:09;21.70;84.20
58519;DHT22;44310;48.106;12.008;2022-08-25T04:31:39;21.70;84.10
58519;DHT22;44310;48.106;12.008;2022-08-25T04:34:06;21.60;84.10
58519;DHT22;44310;48.106;12.008;2022-08-25T04:36:54;21.60;84.00
58519;DHT22;44310;48.106;12.008;2022-08-25T04:39:21;21.70;84.10
58519;DHT22;44310;48.106;12.008;2022-08-25T04:41:49;21.70;84.10
58519;DHT22;44310;48.106;12.008;2022-08-25T04:44:18;21.70;84.00
58519;DHT22;44310;48.106;12.008;2022-08-25T04:46:48;21.70;83.90
58519;DHT22;44310;48.106;12.008;2022-08-25T04:49:16;21.70;83.90
58519;DHT22;44310;48.106;12.008;2022-08-25T04:51:43;21.70;83.80
58519;DHT22;44310;48.106;12.008;2022-08-25T04:54:14;21.70;83.80
58519;DHT22;44310;48.106;12.008;2022-08-25T04:56:49;21.70;83.90
58519;DHT22;44310;48.106;12.008;2022-08-25T04:59:20;21.70;83.80
58519;DHT22;44310;48.106;12.008;2022-08-25T05:01:48;21.70;83.70
58519;DHT22;44310;48.106;12.008;2022-08-25T05:04:20;21.70;83.70
58519;DHT22;44310;48.106;12.008;2022-08-25T05:06:55;21.70;83.70
58519;DHT22;44310;48.106;12.008;2022-08-25T05:09:24;21.70;83.70
58519;DHT22;44310;48.106;12.008;2022-08-25T05:11:52;21.70;83.60
58519;DHT22;44310;48.106;12.008;2022-08-25T05:14:20;21.70;83.50
58519;DHT22;44310;48.106;12.008;2022-08-25T05:16:54;21.70;83.50
58519;DHT22;44310;48.106;12.008;2022-08-25T05:19:23;21.70;83.50
58519;DHT22;44310;48.106;12.008;2022-08-25T05:21:51;21.70;83.50
58519;DHT22;44310;48.106;12.008;2022-08-25T05:24:19;21.70;83.50
58519;DHT22;44310;48.106;12.008;2022-08-25T05:26:47;21.70;83.60
58519;DHT22;44310;48.106;12.008;2022-08-25T05:29:15;21.70;83.80
58519;DHT22;44310;48.106;12.008;2022-08-25T05:31:42;21.70;83.80
58519;DHT22;44310;48.106;12.008;2022-08-25T05:34:17;21.70;84.00
58519;DHT22;44310;48.106;12.008;2022-08-25T05:36:46;21.70;84.10
58519;DHT22;44310;48.106;12.008;2022-08-25T05:39:14;21.70;84.10
58519;DHT22;44310;48.106;12.008;2022-08-25T05:41:41;21.70;84.20
58519;DHT22;44310;48.106;12.008;2022-08-25T05:44:08;21.70;84.30
58519;DHT22;44310;48.106;12.008;2022-08-25T05:46:36;21.70;84.40
58519;DHT22;44310;48.106;12.008;2022-08-25T05:49:03;21.70;84.40
58519;DHT22;44310;48.106;12.008;2022-08-25T05:51:30;21.70;85.00
58519;DHT22;44310;48.106;12.008;2022-08-25T05:53:57;21.80;84.40
58519;DHT22;44310;48.106;12.008;2022-08-25T05:56:25;21.70;84.40
58519;DHT22;44310;48.106;12.008;2022-08-25T05:58:53;21.70;84.40
58519;DHT22;44310;48.106;12.008;2022-08-25T06:01:23;21.70;84.30
58519;DHT22;44310;48.106;12.008;2022-08-25T06:04:30;21.70;84.20
58519;DHT22;44310;48.106;12.008;2022-08-25T06:06:57;21.70;84.30
58519;DHT22;44310;48.106;12.008;2022-08-25T06:09:24;21.70;84.30
58519;DHT22;44310;48.106;12.008;2022-08-25T06:11:52;21.70;84.50
58519;DHT22;44310;48.106;12.008;2022-08-25T06:14:23;21.70;84.20
58519;DHT22;44310;48.106;12.008;2022-08-25T06:16:51;21.60;84.20
58519;DHT22;44310;48.106;12.008;2022-08-25T06:19:19;21.60;84.60
58519;DHT22;44310;48.106;12.008;2022-08-25T06:21:53;21.50;84.30
58519;DHT22;44310;48.106;12.008;2022-08-25T06:24:22;21.50;84.60
58519;DHT22;44310;48.106;12.008;2022-08-25T06:26:49;21.50;85.50
58519;DHT22;44310;48.106;12.008;2022-08-25T06:29:17;21.40;85.20
58519;DHT22;44310;48.106;12.008;2022-08-25T06:31:45;21.40;85.80
58519;DHT22;44310;48.106;12.008;2022-08-25T06:34:13;21.50;86.20
58519;DHT22;44310;48.106;12.008;2022-08-25T06:36:41;21.50;86.40
58519;DHT22;44310;48.106;12.008;2022-08-25T06:39:09;21.60;86.50
58519;DHT22;44310;48.106;12.008;2022-08-25T06:41:37;21.60;86.50
58519;DHT22;44310;48.106;12.008;2022-08-25T06:44:05;21.60;86.50
58519;DHT22;44310;48.106;12.008;2022-08-25T06:46:33;21.70;86.50
58519;DHT22;44310;48.106;12.008;2022-08-25T06:49:04;21.70;86.60
58519;DHT22;44310;48.106;12.008;2022-08-25T06:51:32;21.70;86.60
58519;DHT22;44310;48.106;12.008;2022-08-25T06:54:03;21.70;86.60
58519;DHT22;44310;48.106;12.008;2022-08-25T06:56:30;21.70;86.60
58519;DHT22;44310;48.106;12.008;2022-08-25T06:59:00;21.80;86.60
58519;DHT22;44310;48.106;12.008;2022-08-25T07:01:28;21.80;86.70
58519;DHT22;44310;48.106;12.008;2022-08-25T07:03:59;21.80;86.80
58519;DHT22;44310;48.106;12.008;2022-08-25T07:06:29;21.80;86.80
58519;DHT22;44310;48.106;12.008;2022-08-25T07:09:05;21.80;86.90
58519;DHT22;44310;48.106;12.008;2022-08-25T07:11:33;21.80;86.90
58519;DHT22;44310;48.106;12.008;2022-08-25T07:14:02;21.80;87.00
58519;DHT22;44310;48.106;12.008;2022-08-25T07:16:30;21.80;87.00
58519;DHT22;44310;48.106;12.008;2022-08-25T07:18:59;21.80;87.00
58519;DHT22;44310;48.106;12.008;2022-08-25T07:21:28;21.80;87.00
58519;DHT22;44310;48.106;12.008;2022-08-25T07:24:00;21.80;87.00
58519;DHT22;44310;48.106;12.008;2022-08-25T07:26:30;21.80;87.00
58519;DHT22;44310;48.106;12.008;2022-08-25T07:29:31;21.80;87.10
58519;DHT22;44310;48.106;12.008;2022-08-25T07:32:00;21.80;87.20
58519;DHT22;44310;48.106;12.008;2022-08-25T07:34:28;21.80;87.40
58519;DHT22;44310;48.106;12.008;2022-08-25T07:37:20;21.80;87.50
58519;DHT22;44310;48.106;12.008;2022-08-25T07:40:19;21.80;87.60
58519;DHT22;44310;48.106;12.008;2022-08-25T07:42:49;21.80;88.10
58519;DHT22;44310;48.106;12.008;2022-08-25T07:45:17;21.80;88.10
58519;DHT22;44310;48.106;12.008;2022-08-25T07:47:47;21.90;88.10
58519;DHT22;44310;48.106;12.008;2022-08-25T07:50:18;21.90;88.10
58519;DHT22;44310;48.106;12.008;2022-08-25T07:52:45;21.90;88.40
58519;DHT22;44310;48.106;12.008;2022-08-25T07:55:22;21.90;88.40
58519;DHT22;44310;48.106;12.008;2022-08-25T07:57:51;21.90;88.50
58519;DHT22;44310;48.106;12.008;2022-08-25T08:00:23;21.90;88.40
58519;DHT22;44310;48.106;12.008;2022-08-25T08:02:54;21.90;88.40
58519;DHT22;44310;48.106;12.008;2022-08-25T08:05:22;21.90;88.60
58519;DHT22;44310;48.106;12.008;2022-08-25T08:07:51;21.90;88.60
58519;DHT22;44310;48.106;12.008;2022-08-25T08:10:19;21.90;88.70
58519;DHT22;44310;48.106;12.008;2022-08-25T08:13:08;21.90;88.70
58519;DHT22;44310;48.106;12.008;2022-08-25T08:15:36;21.90;88.70
58519;DHT22;44310;48.106;12.008;2022-08-25T08:18:08;21.90;88.60
58519;DHT22;44310;48.106;12.008;2022-08-25T08:20:36;21.90;88.70
58519;DHT22;44310;48.106;12.008;2022-08-25T08:23:10;21.90;88.70
58519;DHT22;44310;48.106;12.008;2022-08-25T08:25:40;21.90;88.80
58519;DHT22;44310;48.106;12.008;2022-08-25T08:28:07;21.90;88.70
58519;DHT22;44310;48.106;12.008;2022-08-25T08:30:37;21.90;88.80
58519;DHT22;44310;48.106;12.008;2022-08-25T08:33:04;21.90;88.70
58519;DHT22;44310;48.106;12.008;2022-08-25T08:35:39;21.90;88.90
58519;DHT22;44310;48.106;12.008;2022-08-25T08:38:07;21.90;88.80
58519;DHT22;44310;48.106;12.008;2022-08-25T08:40:49;21.90;89.00
58519;DHT22;44310;48.106;12.008;2022-08-25T08:43:55;21.90;89.00
58519;DHT22;44310;48.106;12.008;2022-08-25T08:46:47;21.90;88.90
58519;DHT22;44310;48.106;12.008;2022-08-25T08:49:39;21.90;88.90
58519;DHT22;44310;48.106;12.008;2022-08-25T08:52:14;21.90;88.70
58519;DHT22;44310;48.106;12.008;2022-08-25T08:54:44;21.90;89.00
58519;DHT22;44310;48.106;12.008;2022-08-25T08:57:16;21.90;88.70
58519;DHT22;44310;48.106;12.008;2022-08-25T08:59:50;21.90;88.90
58519;DHT22;44310;48.106;12.008;2022-08-25T09:02:34;21.90;89.00
58519;DHT22;44310;48.106;12.008;2022-08-25T09:05:21;21.90;89.00
58519;DHT22;44310;48.106;12.008;2022-08-25T09:07:59;21.90;89.70
58519;DHT22;44310;48.106;12.008;2022-08-25T09:10:47;22.00;89.40
58519;DHT22;44310;48.106;12.008;2022-08-25T09:25:16;22.00;89.90
58519;DHT22;44310;48.106;12.008;2022-08-25T09:28:17;22.00;90.00
58519;DHT22;44310;48.106;12.008;2022-08-25T09:33:33;22.00;90.10
58519;DHT22;44310;48.106;12.008;2022-08-25T09:36:03;22.00;90.10
58519;DHT22;44310;48.106;12.008;2022-08-25T09:38:32;22.00;90.10
58519;DHT22;44310;48.106;12.008;2022-08-25T09:41:01;22.00;90.10
58519;DHT22;44310;48.106;12.008;2022-08-25T09:43:39;22.00;90.00
58519;DHT22;44310;48.106;12.008;2022-08-25T09:48:49;22.10;90.10
58519;DHT22;44310;48.106;12.008;2022-08-25T09:51:27;22.10;89.80
58519;DHT22;44310;48.106;12.008;2022-08-25T09:56:56;22.10;89.30
58519;DHT22;44310;48.106;12.008;2022-08-25T09:59:35;22.10;89.50
58519;DHT22;44310;48.106;12.008;2022-08-25T10:02:22;22.20;89.90
58519;DHT22;44310;48.106;12.008;2022-08-25T10:04:52;22.20;89.40
58519;DHT22;44310;48.106;12.008;2022-08-25T10:07:23;22.10;89.40
58519;DHT22;44310;48.106;12.008;2022-08-25T10:10:00;22.20;89.30
58519;DHT22;44310;48.106;12.008;2022-08-25T10:12:38;22.20;89.50
58519;DHT22;44310;48.106;12.008;2022-08-25T10:18:25;22.20;88.80
58519;DHT22;44310;48.106;12.008;2022-08-25T10:23:45;22.30;89.00
58519;DHT22;44310;48.106;12.008;2022-08-25T10:26:22;22.30;88.40
58519;DHT22;44310;48.106;12.008;2022-08-25T10:31:34;22.40;88.60
58519;DHT22;44310;48.106;12.008;2022-08-25T10:34:23;22.40;88.40
58519;DHT22;44310;48.106;12.008;2022-08-25T10:46:24;22.40;87.60
58519;DHT22;44310;48.106;12.008;2022-08-25T10:49:04;22.50;87.70
58519;DHT22;44310;48.106;12.008;2022-08-25T10:54:40;22.60;89.10
58519;DHT22;44310;48.106;12.008;2022-08-25T11:00:08;22.60;89.80
58519;DHT22;44310;48.106;12.008;2022-08-25T11:02:52;22.50;90.00
58519;DHT22;44310;48.106;12.008;2022-08-25T11:08:36;22.50;90.10
58519;DHT22;44310;48.106;12.008;2022-08-25T11:11:30;22.50;90.20
58519;DHT22;44310;48.106;12.008;2022-08-25T11:14:38;22.50;90.60
58519;DHT22;44310;48.106;12.008;2022-08-25T11:19:50;22.40;90.60
58519;DHT22;44310;48.106;12.008;2022-08-25T11:22:25;22.40;90.70
58519;DHT22;44310;48.106;12.008;2022-08-25T11:25:27;22.40;90.80
58519;DHT22;44310;48.106;12.008;2022-08-25T11:30:50;22.40;91.00
58519;DHT22;44310;48.106;12.008;2022-08-25T11:33:19;22.40;91.20
58519;DHT22;44310;48.106;12.008;2022-08-25T11:36:05;22.40;91.20
58519;DHT22;44310;48.106;12.008;2022-08-25T11:53:15;22.30;91.40
58519;DHT22;44310;48.106;12.008;2022-08-25T11:55:52;22.30;91.50
58519;DHT22;44310;48.106;12.008;2022-08-25T11:58:30;22.30;91.40
58519;DHT22;44310;48.106;12.008;2022-08-25T12:01:00;22.30;91.40
58519;DHT22;44310;48.106;12.008;2022-08-25T12:06:29;22.30;91.40
58519;DHT22;44310;48.106;12.008;2022-08-25T12:14:35;22.30;91.50
58519;DHT22;44310;48.106;12.008;2022-08-25T12:17:21;22.30;91.40
58519;DHT22;44310;48.106;12.008;2022-08-25T12:19:53;22.30;91.30
58519;DHT22;44310;48.106;12.008;2022-08-25T12:25:03;22.40;91.30
58519;DHT22;44310;48.106;12.008;2022-08-25T12:30:26;22.40;90.80
58519;DHT22;44310;48.106;12.008;2022-08-25T12:33:40;22.40;91.20
58519;DHT22;44310;48.106;12.008;2022-08-25T12:36:10;22.50;90.80
58519;DHT22;44310;48.106;12.008;2022-08-25T12:38:52;22.50;90.80
58519;DHT22;44310;48.106;12.008;2022-08-25T12:41:27;22.60;91.00
58519;DHT22;44310;48.106;12.008;2022-08-25T12:44:39;22.50;90.70
58519;DHT22;44310;48.106;12.008;2022-08-25T12:49:49;22.50;91.00
58519;DHT22;44310;48.106;12.008;2022-08-25T12:52:20;22.50;91.10
58519;DHT22;44310;48.106;12.008;2022-08-25T12:54:59;22.50;91.00
58519;DHT22;44310;48.106;12.008;2022-08-25T12:57:49;22.50;91.10
58519;DHT22;44310;48.106;12.008;2022-08-25T13:06:13;22.50;90.40
58519;DHT22;44310;48.106;12.008;2022-08-25T13:14:44;22.50;90.40
58519;DHT22;44310;48.106;12.008;2022-08-25T13:17:27;22.50;90.10
58519;DHT22;44310;48.106;12.008;2022-08-25T13:20:30;22.50;90.20
58519;DHT22;44310;48.106;12.008;2022-08-25T13:23:01;22.50;90.20
58519;DHT22;44310;48.106;12.008;2022-08-25T13:25:30;22.50;90.30
58519;DHT22;44310;48.106;12.008;2022-08-25T13:28:02;22.50;90.40
58519;DHT22;44310;48.106;12.008;2022-08-25T13:30:34;22.40;90.30
58519;DHT22;44310;48.106;12.008;2022-08-25T13:33:22;22.40;90.30
58519;DHT22;44310;48.106;12.008;2022-08-25T13:35:55;22.30;90.20
58519;DHT22;44310;48.106;12.008;2022-08-25T13:38:35;22.30;90.30
58519;DHT22;44310;48.106;12.008;2022-08-25T13:41:05;22.30;90.10
58519;DHT22;44310;48.106;12.008;2022-08-25T13:43:37;22.30;90.20
58519;DHT22;44310;48.106;12.008;2022-08-25T13:46:07;22.30;90.10
58519;DHT22;44310;48.106;12.008;2022-08-25T13:48:40;22.30;90.10
58519;DHT22;44310;48.106;12.008;2022-08-25T13:51:22;22.30;90.20
58519;DHT22;44310;48.106;12.008;2022-08-25T13:53:59;22.30;90.10
58519;DHT22;44310;48.106;12.008;2022-08-25T13:56:34;22.30;90.10
58519;DHT22;44310;48.106;12.008;2022-08-25T13:59:23;22.30;90.10
58519;DHT22;44310;48.106;12.008;2022-08-25T14:01:53;22.30;90.10
58519;DHT22;44310;48.106;12.008;2022-08-25T14:09:49;22.20;90.00
58519;DHT22;44310;48.106;12.008;2022-08-25T14:17:58;22.20;89.90
58519;DHT22;44310;48.106;12.008;2022-08-25T14:20:30;22.20;89.90
58519;DHT22;44310;48.106;12.008;2022-08-25T14:23:08;22.20;90.00
58519;DHT22;44310;48.106;12.008;2022-08-25T14:25:45;22.20;90.00
58519;DHT22;44310;48.106;12.008;2022-08-25T14:28:19;22.20;89.90
58519;DHT22;44310;48.106;12.008;2022-08-25T14:30:54;22.20;90.20
58519;DHT22;44310;48.106;12.008;2022-08-25T14:33:32;22.20;90.00
58519;DHT22;44310;48.106;12.008;2022-08-25T14:36:00;22.20;90.00
58519;DHT22;44310;48.106;12.008;2022-08-25T14:38:31;22.20;89.90
58519;DHT22;44310;48.106;12.008;2022-08-25T14:40:59;22.10;89.80
58519;DHT22;44310;48.106;12.008;2022-08-25T14:43:27;22.10;89.70
58519;DHT22;44310;48.106;12.008;2022-08-25T14:46:00;22.10;89.60
58519;DHT22;44310;48.106;12.008;2022-08-25T14:48:34;22.10;89.50
58519;DHT22;44310;48.106;12.008;2022-08-25T14:51:05;22.10;89.50
58519;DHT22;44310;48.106;12.008;2022-08-25T14:53:33;22.10;89.50
58519;DHT22;44310;48.106;12.008;2022-08-25T14:56:00;22.10;89.60
58519;DHT22;44310;48.106;12.008;2022-08-25T14:58:35;22.10;89.50
58519;DHT22;44310;48.106;12.008;2022-08-25T15:01:21;22.10;89.60
58519;DHT22;44310;48.106;12.008;2022-08-25T15:04:35;22.10;89.50
58519;DHT22;44310;48.106;12.008;2022-08-25T15:06:57;22.10;89.50
58519;DHT22;44310;48.106;12.008;2022-08-25T15:09:26;22.10;89.40
58519;DHT22;44310;48.106;12.008;2022-08-25T15:11:59;22.10;89.30
58519;DHT22;44310;48.106;12.008;2022-08-25T15:14:27;22.10;89.30
58519;DHT22;44310;48.106;12.008;2022-08-25T15:17:01;22.10;89.30
58519;DHT22;44310;48.106;12.008;2022-08-25T15:19:29;22.10;89.40
58519;DHT22;44310;48.106;12.008;2022-08-25T15:21:56;22.10;89.30
58519;DHT22;44310;48.106;12.008;2022-08-25T15:24:26;22.10;89.30
58519;DHT22;44310;48.106;12.008;2022-08-25T15:26:59;22.00;89.00
58519;DHT22;44310;48.106;12.008;2022-08-25T15:29:28;22.00;89.20
58519;DHT22;44310;48.106;12.008;2022-08-25T15:31:58;22.00;89.20
58519;DHT22;44310;48.106;12.008;2022-08-25T15:34:27;22.00;89.30
58519;DHT22;44310;48.106;12.008;2022-08-25T15:36:56;22.00;89.50
58519;DHT22;44310;48.106;12.008;2022-08-25T15:39:26;22.10;89.50
58519;DHT22;44310;48.106;12.008;2022-08-25T15:41:54;22.00;89.60
58519;DHT22;44310;48.106;12.008;2022-08-25T15:44:23;22.00;89.50
58519;DHT22;44310;48.106;12.008;2022-08-25T15:46:56;22.00;89.30
58519;DHT22;44310;48.106;12.008;2022-08-25T15:49:25;22.00;89.40
58519;DHT22;44310;48.106;12.008;2022-08-25T15:51:57;22.00;89.30
58519;DHT22;44310;48.106;12.008;2022-08-25T15:54:26;22.00;89.30
58519;DHT22;44310;48.106;12.008;2022-08-25T15:56:55;22.00;89.20
58519;DHT22;44310;48.106;12.008;2022-08-25T15:59:24;22.00;89.70
58519;DHT22;44310;48.106;12.008;2022-08-25T16:01:54;22.00;89.10
58519;DHT22;44310;48.106;12.008;2022-08-25T16:04:23;22.00;89.20
58519;DHT22;44310;48.106;12.008;2022-08-25T16:06:51;22.00;89.20
58519;DHT22;44310;48.106;12.008;2022-08-25T16:09:20;22.00;89.40
58519;DHT22;44310;48.106;12.008;2022-08-25T16:11:49;22.00;89.70
58519;DHT22;44310;48.106;12.008;2022-08-25T16:14:23;22.00;89.80
58519;DHT22;44310;48.106;12.008;2022-08-25T16:16:50;22.00;89.70
58519;DHT22;44310;48.106;12.008;2022-08-25T16:19:27;22.00;89.80
58519;DHT22;44310;48.106;12.008;2022-08-25T16:21:55;22.00;89.90
58519;DHT22;44310;48.106;12.008;2022-08-25T16:24:26;22.00;89.90
58519;DHT22;44310;48.106;12.008;2022-08-25T16:26:55;22.00;90.00
58519;DHT22;44310;48.106;12.008;2022-08-25T16:29:42;22.00;90.20
58519;DHT22;44310;48.106;12.008;2022-08-25T16:32:13;22.00;90.20
58519;DHT22;44310;48.106;12.008;2022-08-25T16:34:42;22.00;90.10
58519;DHT22;44310;48.106;12.008;2022-08-25T16:37:10;22.00;90.10
58519;DHT22;44310;48.106;12.008;2022-08-25T16:39:38;22.00;90.10
58519;DHT22;44310;48.106;12.008;2022-08-25T16:42:10;22.00;90.10
58519;DHT22;44310;48.106;12.008;2022-08-25T16:44:39;22.00;90.30
58519;DHT22;44310;48.106;12.008;2022-08-25T16:47:07;22.00;90.20
58519;DHT22;44310;48.106;12.008;2022-08-25T16:49:35;22.00;90.10
58519;DHT22;44310;48.106;12.008;2022-08-25T16:52:04;22.00;90.10
58519;DHT22;44310;48.106;12.008;2022-08-25T16:54:54;22.00;90.10
58519;DHT22;44310;48.106;12.008;2022-08-25T16:57:43;22.00;90.20
58519;DHT22;44310;48.106;12.008;2022-08-25T17:00:20;21.90;90.10
58519;DHT22;44310;48.106;12.008;2022-08-25T17:02:50;22.00;90.20
58519;DHT22;44310;48.106;12.008;2022-08-25T17:05:20;21.90;90.20
58519;DHT22;44310;48.106;12.008;2022-08-25T17:07:47;21.90;90.20
58519;DHT22;44310;48.106;12.008;2022-08-25T17:10:37;21.90;90.30
58519;DHT22;44310;48.106;12.008;2022-08-25T17:13:05;21.90;90.30
58519;DHT22;44310;48.106;12.008;2022-08-25T17:15:33;21.90;90.20
58519;DHT22;44310;48.106;12.008;2022-08-25T17:18:00;21.90;90.30
58519;DHT22;44310;48.106;12.008;2022-08-25T17:20:28;21.90;90.20
58519;DHT22;44310;48.106;12.008;2022-08-25T17:22:55;21.90;90.30
58519;DHT22;44310;48.106;12.008;2022-08-25T17:25:23;21.90;90.30
58519;DHT22;44310;48.106;12.008;2022-08-25T17:27:53;21.90;90.30
58519;DHT22;44310;48.106;12.008;2022-08-25T17:30:21;21.90;90.20
58519;DHT22;44310;48.106;12.008;2022-08-25T17:32:48;21.90;90.20
58519;DHT22;44310;48.106;12.008;2022-08-25T17:35:17;21.90;90.10